Time;durP1;ratioP1;P1;durP2;ratioP2;P2;SDS_P1;SDS_P2;PMS_P1;PMS_P2;Temp;Humidity;BMP_temperature;BMP_pressure;BME280_temperature;BME280_humidity;BME280_pressure;Samples;Min_cycle;Max_cycle;Signal;HPM_P1;HPM_P2
2021/04/29 00:02:51;;;;;;;18.80;10.75;;;;;;;11.46;75.20;98765.84;6253321;22;20000;-95
2021/04/29 00:06:09;;;;;;;17.10;11.05;;;;;;;11.35;75.79;98770.53;6225081;22;20073;-96
2021/04/29 00:08:35;;;;;;;16.20;10.95;;;;;;;11.35;75.59;98767.84;6247191;22;20007;-88
2021/04/29 00:11:03;;;;;;;18.92;12.60;;;;;;;11.32;75.38;98763.09;6247835;22;20002;-89
2021/04/29 00:13:28;;;;;;;19.08;11.45;;;;;;;11.33;74.99;98764.69;6254993;22;20026;-92
2021/04/29 00:15:54;;;;;;;18.33;12.32;;;;;;;11.35;75.19;98779.38;6259811;22;20000;-92
2021/04/29 00:18:21;;;;;;;23.63;12.75;;;;;;;11.36;75.61;98772.94;6249895;22;20004;-87
2021/04/29 00:20:46;;;;;;;29.38;15.55;;;;;;;11.38;75.41;98765.38;6272668;22;20333;-86
2021/04/29 00:23:12;;;;;;;34.10;16.63;;;;;;;11.33;75.04;98765.47;6273053;22;20031;-88
2021/04/29 00:25:38;;;;;;;36.83;18.38;;;;;;;11.30;75.15;98770.59;6273620;22;19999;-87
2021/04/29 00:28:04;;;;;;;43.45;19.80;;;;;;;11.26;75.40;98767.69;6272151;22;20468;-85
2021/04/29 00:30:29;;;;;;;47.40;21.35;;;;;;;11.22;74.79;98774.72;6247316;22;19999;-91
2021/04/29 00:32:55;;;;;;;49.58;20.55;;;;;;;11.17;75.81;98778.25;6247995;22;20390;-91
2021/04/29 00:35:20;;;;;;;57.72;21.83;;;;;;;11.15;75.72;98771.59;6247329;22;20106;-86
2021/04/29 00:37:47;;;;;;;56.88;24.63;;;;;;;11.16;75.48;98778.53;6247096;22;20333;-90
2021/04/29 00:40:15;;;;;;;58.95;24.00;;;;;;;11.15;75.56;98766.22;6272443;22;20388;-90
2021/04/29 00:42:50;;;;;;;68.65;25.05;;;;;;;11.16;75.45;98767.84;6225979;22;20015;-89
2021/04/29 00:45:15;;;;;;;71.28;24.23;;;;;;;11.19;75.12;98761.88;6246961;22;20003;-88
2021/04/29 00:47:41;;;;;;;62.03;23.45;;;;;;;11.21;75.69;98765.09;6247077;22;19992;-90
2021/04/29 00:50:10;;;;;;;70.43;23.98;;;;;;;11.23;75.50;98754.09;6246345;22;20011;-88
2021/04/29 00:52:36;;;;;;;59.33;23.05;;;;;;;11.24;75.26;98758.34;6273905;22;20301;-93
2021/04/29 00:55:03;;;;;;;65.90;24.73;;;;;;;11.28;74.85;98759.38;6248086;22;19999;-92
2021/04/29 00:57:28;;;;;;;62.10;23.20;;;;;;;11.30;75.08;98759.88;6248699;22;20138;-94
2021/04/29 00:59:55;;;;;;;71.20;25.25;;;;;;;11.31;75.21;98761.47;6248424;22;20050;-91
2021/04/29 01:02:23;;;;;;;66.38;23.77;;;;;;;11.29;74.95;98766.31;6249956;22;19996;-90
2021/04/29 01:05:06;;;;;;;67.43;24.50;;;;;;;11.31;75.03;98758.81;6247334;22;20031;-89
2021/04/29 01:07:41;;;;;;;75.53;26.65;;;;;;;11.31;74.52;98764.94;6247622;22;20061;-88
2021/04/29 01:10:31;;;;;;;77.60;26.90;;;;;;;11.30;74.85;98758.03;6246677;22;20095;-94
2021/04/29 01:13:13;;;;;;;67.72;23.67;;;;;;;11.30;75.05;98760.69;6247780;22;20007;-92
2021/04/29 01:15:42;;;;;;;59.92;23.48;;;;;;;11.28;74.78;98754.81;6273138;22;20027;-89
2021/04/29 01:18:09;;;;;;;70.55;25.92;;;;;;;11.24;74.78;98756.47;6246414;22;20000;-92
2021/04/29 01:20:49;;;;;;;86.97;26.63;;;;;;;11.23;75.29;98759.44;6273283;22;20066;-94
2021/04/29 01:23:30;;;;;;;94.93;29.58;;;;;;;11.09;75.00;98757.47;6274048;22;20011;-88
2021/04/29 01:25:58;;;;;;;121.47;32.15;;;;;;;11.01;76.24;98752.72;6246478;22;20007;-84
2021/04/29 01:28:26;;;;;;;;;;;;;;;10.95;76.40;98746.66;6247369;22;20008;-83
2021/04/29 01:30:52;;;;;;;150.82;38.28;;;;;;;10.88;76.40;98759.59;6246223;22;19899;-86
2021/04/29 01:33:19;;;;;;;172.02;40.00;;;;;;;10.83;76.81;98770.34;6247748;22;20111;-86
2021/04/29 01:35:46;;;;;;;149.95;39.90;;;;;;;10.83;76.69;98778.38;6248900;22;20066;-89
2021/04/29 01:38:12;;;;;;;140.07;38.07;;;;;;;10.80;76.73;98774.38;6275785;22;20006;-86
2021/04/29 01:41:16;;;;;;;113.10;32.92;;;;;;;10.82;77.22;98776.78;6249687;22;20230;-96
2021/04/29 01:43:50;;;;;;;71.28;21.48;;;;;;;10.75;77.40;98776.31;6243939;22;20000;-94
2021/04/29 01:46:15;;;;;;;36.33;17.00;;;;;;;10.74;76.92;98778.16;6211159;22;20003;-82
2021/04/29 01:48:41;;;;;;;46.75;19.58;;;;;;;10.70;77.26;98779.84;6251957;22;20310;-82
2021/04/29 01:51:08;;;;;;;37.08;16.63;;;;;;;10.64;77.66;98781.75;6276261;22;20432;-83
2021/04/29 01:53:34;;;;;;;35.33;17.30;;;;;;;10.62;77.61;98791.94;6283215;22;20011;-86
2021/04/29 01:56:00;;;;;;;29.40;16.23;;;;;;;10.58;77.97;98790.91;6275201;22;19999;-89
2021/04/29 01:58:26;;;;;;;29.35;15.18;;;;;;;10.52;77.81;98784.81;6248356;22;20002;-83
2021/04/29 02:00:51;;;;;;;25.02;14.13;;;;;;;10.43;78.20;98783.03;6247892;22;20000;-86
2021/04/29 02:03:18;;;;;;;23.23;15.50;;;;;;;10.37;78.88;98775.03;6248008;22;20433;-85
2021/04/29 02:05:43;;;;;;;30.52;14.10;;;;;;;10.40;78.92;98777.16;6300692;22;20038;-88
2021/04/29 02:08:09;;;;;;;26.80;15.73;;;;;;;10.43;78.46;98769.66;6278540;22;20421;-87
2021/04/29 02:10:35;;;;;;;25.88;15.65;;;;;;;10.46;78.69;98767.25;6304753;22;20094;-93
2021/04/29 02:13:02;;;;;;;25.73;14.30;;;;;;;10.44;78.54;98768.59;6279092;22;20003;-90
2021/04/29 02:15:35;;;;;;;23.75;14.38;;;;;;;10.46;78.21;98769.91;6279614;22;20040;-93
2021/04/29 02:18:26;;;;;;;21.58;13.43;;;;;;;10.46;78.71;98775.25;6278332;22;20439;-93
2021/04/29 02:20:53;;;;;;;25.33;15.07;;;;;;;10.49;78.25;98785.38;6277899;22;20509;-87
2021/04/29 02:23:23;;;;;;;25.95;15.75;;;;;;;10.52;78.00;98787.50;6304139;22;19995;-82
2021/04/29 02:25:52;;;;;;;23.17;15.27;;;;;;;10.53;77.91;98790.97;6278466;22;19999;-84
2021/04/29 02:28:19;;;;;;;23.52;14.90;;;;;;;10.56;77.79;98799.22;6304519;22;20072;-84
2021/04/29 02:30:48;;;;;;;22.23;13.75;;;;;;;10.56;77.95;98796.53;6278662;22;20003;-86
2021/04/29 02:33:15;;;;;;;19.65;12.80;;;;;;;10.56;77.90;98793.88;6278469;22;20091;-88
2021/04/29 02:35:41;;;;;;;20.83;12.52;;;;;;;10.58;77.97;98796.25;6278558;22;20029;-90
2021/04/29 02:38:07;;;;;;;17.30;12.70;;;;;;;10.59;78.31;98794.38;6278611;22;20007;-85
2021/04/29 02:40:33;;;;;;;21.65;14.93;;;;;;;10.59;78.03;98789.81;6279228;22;20007;-90
2021/04/29 02:42:59;;;;;;;23.17;13.02;;;;;;;10.55;78.33;98786.13;6278436;22;20007;-93
2021/04/29 02:45:24;;;;;;;26.70;14.95;;;;;;;10.52;78.23;98784.81;6278506;22;20475;-95
2021/04/29 02:47:52;;;;;;;21.33;12.93;;;;;;;10.48;78.21;98789.13;6304648;22;20026;-86
2021/04/29 02:50:20;;;;;;;24.30;14.05;;;;;;;10.45;79.00;98794.22;6303784;22;20078;-88
2021/04/29 02:52:48;;;;;;;24.08;13.23;;;;;;;10.43;78.45;98793.72;6278428;22;20069;-87
2021/04/29 02:55:14;;;;;;;22.73;14.00;;;;;;;10.41;78.91;98794.81;6278171;22;20014;-87
2021/04/29 02:57:40;;;;;;;22.95;13.55;;;;;;;10.38;78.82;98798.03;6278323;22;20000;-87
2021/04/29 03:00:13;;;;;;;19.45;13.20;;;;;;;10.41;78.73;98797.47;6303618;22;20382;-85
2021/04/29 03:02:39;;;;;;;24.25;14.65;;;;;;;10.43;78.67;98797.19;6278285;22;20455;-87
2021/04/29 03:05:10;;;;;;;20.40;12.10;;;;;;;10.36;78.60;98805.56;6303223;22;20502;-87
2021/04/29 03:07:44;;;;;;;22.13;12.27;;;;;;;10.36;78.78;98802.88;6304305;22;20010;-93
2021/04/29 03:10:11;;;;;;;24.38;13.52;;;;;;;10.31;78.94;98808.22;6278510;22;20003;-91
2021/04/29 03:12:38;;;;;;;23.30;14.37;;;;;;;10.30;78.93;98819.19;6253246;22;19995;-92
2021/04/29 03:15:06;;;;;;;26.33;13.15;;;;;;;10.25;78.73;98820.84;6277649;22;20367;-92
2021/04/29 03:17:32;;;;;;;28.00;13.43;;;;;;;10.23;79.27;98820.31;6304318;22;19999;-93
2021/04/29 03:19:57;;;;;;;23.35;13.13;;;;;;;10.26;79.52;98818.94;6279250;22;20090;-82
2021/04/29 03:22:23;;;;;;;21.23;11.98;;;;;;;10.27;79.09;98833.13;6278131;22;19995;-89
2021/04/29 03:24:49;;;;;;;27.23;16.58;;;;;;;10.31;78.90;98836.81;6277849;22;19995;-86
2021/04/29 03:27:16;;;;;;;23.17;14.52;;;;;;;10.29;79.14;98833.63;6277886;22;19999;-87
2021/04/29 03:29:42;;;;;;;24.23;14.23;;;;;;;10.29;78.78;98837.13;6303978;22;20003;-86
2021/04/29 03:32:08;;;;;;;24.25;14.52;;;;;;;10.27;79.39;98847.28;6303652;22;20435;-87
2021/04/29 03:34:33;;;;;;;24.92;13.95;;;;;;;10.30;78.99;98852.09;6303881;22;20408;-89
2021/04/29 03:36:59;;;;;;;28.80;14.60;;;;;;;10.32;78.96;98843.78;6303455;22;20007;-89
2021/04/29 03:39:24;;;;;;;23.42;14.95;;;;;;;10.34;78.88;98847.75;6278163;22;19995;-91
2021/04/29 03:41:50;;;;;;;31.50;15.27;;;;;;;10.36;79.04;98847.47;6277204;22;20014;-87
2021/04/29 03:44:15;;;;;;;24.58;13.00;;;;;;;10.36;78.45;98847.47;6278052;22;20119;-86
2021/04/29 03:46:41;;;;;;;26.45;13.13;;;;;;;10.34;78.99;98847.75;6307153;22;19995;-89
2021/04/29 03:49:08;;;;;;;28.98;14.45;;;;;;;10.35;79.13;98852.03;6256655;22;20007;-87
2021/04/29 03:51:34;;;;;;;21.48;12.95;;;;;;;10.32;79.01;98852.56;6311578;22;19995;-91
2021/04/29 03:53:59;;;;;;;26.63;13.45;;;;;;;10.31;78.99;98863.56;6283008;22;20002;-87
2021/04/29 03:56:25;;;;;;;20.50;12.32;;;;;;;10.28;79.29;98856.91;6282502;22;19999;-86
2021/04/29 03:58:50;;;;;;;23.58;14.32;;;;;;;10.28;79.25;98861.44;6282908;22;20006;-82
2021/04/29 04:01:16;;;;;;;28.35;15.98;;;;;;;10.31;79.11;98859.00;6283081;22;20011;-84
2021/04/29 04:03:41;;;;;;;23.65;14.40;;;;;;;10.28;79.44;98864.09;6284583;22;20006;-87
2021/04/29 04:07:00;;;;;;;27.10;14.98;;;;;;;10.27;79.19;98866.00;6307839;22;20489;-85
2021/04/29 04:09:29;;;;;;;24.98;14.23;;;;;;;10.18;79.54;98868.47;6306359;22;20070;-89
2021/04/29 04:11:55;;;;;;;27.00;13.25;;;;;;;10.09;79.98;98868.25;6278440;22;20034;-89
2021/04/29 04:14:20;;;;;;;27.45;16.40;;;;;;;10.10;80.34;98867.16;6280360;22;20341;-87
2021/04/29 04:16:46;;;;;;;28.23;16.83;;;;;;;10.15;80.12;98874.34;6304469;22;19998;-84
2021/04/29 04:19:11;;;;;;;23.98;15.27;;;;;;;10.16;79.98;98867.13;6277367;22;20057;-85
2021/04/29 04:21:37;;;;;;;30.85;16.40;;;;;;;10.08;80.11;98877.34;6278080;22;20002;-82
2021/04/29 04:24:02;;;;;;;25.67;15.10;;;;;;;10.10;80.49;98880.50;6303736;22;20399;-84
2021/04/29 04:26:28;;;;;;;27.17;14.55;;;;;;;10.12;80.24;98882.94;6304535;22;20006;-82
2021/04/29 04:28:54;;;;;;;26.38;15.57;;;;;;;10.14;80.45;98878.09;6276878;22;20039;-84
2021/04/29 04:31:20;;;;;;;24.33;13.95;;;;;;;10.12;80.18;98890.94;6276027;22;20038;-80
2021/04/29 04:33:45;;;;;;;22.33;14.38;;;;;;;10.15;80.24;98892.25;6276681;22;19999;-78
2021/04/29 04:36:11;;;;;;;22.33;13.50;;;;;;;10.17;80.26;98890.91;6303947;22;20340;-77
2021/04/29 04:38:36;;;;;;;24.27;14.85;;;;;;;10.23;80.09;98902.38;6277124;22;20000;-77
2021/04/29 04:41:03;;;;;;;16.55;12.00;;;;;;;10.23;79.68;98899.69;6302739;22;20006;-77
2021/04/29 04:43:29;;;;;;;24.60;14.63;;;;;;;10.26;79.73;98899.13;6277148;22;20416;-77
2021/04/29 04:45:54;;;;;;;25.67;15.25;;;;;;;10.32;79.74;98900.69;6277580;22;20006;-77
2021/04/29 04:48:20;;;;;;;26.95;15.13;;;;;;;10.31;79.57;98903.66;6277135;22;20451;-76
2021/04/29 04:50:45;;;;;;;26.42;15.82;;;;;;;10.32;79.86;98911.38;6277474;22;20432;-79
2021/04/29 04:53:11;;;;;;;21.55;12.80;;;;;;;10.30;79.42;98905.53;6302943;22;20088;-78
2021/04/29 04:55:42;;;;;;;26.27;15.52;;;;;;;10.29;79.93;98916.47;6304736;22;20025;-78
2021/04/29 04:58:08;;;;;;;20.63;12.80;;;;;;;10.27;80.11;98910.63;6277197;22;20499;-78
2021/04/29 05:00:33;;;;;;;20.92;13.10;;;;;;;10.21;79.77;98910.66;6304533;22;20026;-78
2021/04/29 05:02:59;;;;;;;26.30;16.02;;;;;;;10.24;80.64;98912.78;6277274;22;19999;-78
2021/04/29 05:05:24;;;;;;;25.02;15.75;;;;;;;10.30;79.83;98907.41;6304789;22;20011;-77
2021/04/29 05:07:50;;;;;;;24.58;14.18;;;;;;;10.34;79.59;98914.59;6303923;22;20007;-77
2021/04/29 05:10:15;;;;;;;29.05;16.77;;;;;;;10.44;79.38;98907.63;6304872;22;20006;-78
2021/04/29 05:12:40;;;;;;;29.73;18.10;;;;;;;10.61;80.14;98909.88;6279368;22;20033;-76
2021/04/29 05:15:06;;;;;;;29.95;17.10;;;;;;;10.83;79.19;98912.13;6304868;22;20481;-77
2021/04/29 05:17:32;;;;;;;26.17;14.98;;;;;;;11.01;77.42;98915.97;6279181;22;20006;-77
2021/04/29 05:19:57;;;;;;;20.83;13.63;;;;;;;11.18;76.72;98923.56;6305215;22;20015;-78
2021/04/29 05:22:23;;;;;;;22.65;15.30;;;;;;;11.27;76.16;98921.88;6304894;22;20003;-78
2021/04/29 05:24:48;;;;;;;23.33;14.18;;;;;;;11.40;76.34;98927.63;6304934;22;20090;-77
2021/04/29 05:27:14;;;;;;;22.75;14.80;;;;;;;11.53;75.32;98930.44;6306283;22;20504;-77
2021/04/29 05:29:39;;;;;;;21.50;16.65;;;;;;;11.63;75.10;98934.09;6278965;22;19999;-77
2021/04/29 05:32:05;;;;;;;25.40;16.48;;;;;;;11.75;74.74;98936.38;6278589;22;20003;-77
2021/04/29 05:34:32;;;;;;;23.80;14.05;;;;;;;11.73;74.20;98938.53;6304760;22;20428;-77
2021/04/29 05:36:58;;;;;;;26.38;15.85;;;;;;;11.69;74.20;98943.66;6304876;22;20003;-78
2021/04/29 05:39:23;;;;;;;30.77;17.75;;;;;;;11.78;74.52;98941.94;6304314;22;20006;-76
2021/04/29 05:41:49;;;;;;;30.25;16.85;;;;;;;11.88;73.87;98940.22;6278946;22;20010;-76
2021/04/29 05:44:14;;;;;;;29.88;16.70;;;;;;;11.94;73.70;98939.88;6278761;22;20162;-77
2021/04/29 05:46:41;;;;;;;27.15;16.88;;;;;;;11.98;73.33;98938.22;6278884;22;20566;-77
2021/04/29 05:49:06;;;;;;;34.65;18.90;;;;;;;12.01;73.65;98937.66;6278647;22;19999;-76
2021/04/29 05:51:32;;;;;;;36.95;19.25;;;;;;;12.12;73.38;98940.22;6278819;22;20007;-76
2021/04/29 05:53:57;;;;;;;25.65;16.52;;;;;;;12.13;72.31;98952.53;6304498;22;19999;-78
2021/04/29 05:56:23;;;;;;;28.92;16.65;;;;;;;12.08;73.10;98945.34;6304379;22;20417;-78
2021/04/29 05:58:48;;;;;;;26.08;16.33;;;;;;;12.17;72.46;98956.25;6278724;22;19996;-77
2021/04/29 06:01:14;;;;;;;28.55;16.33;;;;;;;12.28;72.65;98956.88;6278445;22;20432;-77
2021/04/29 06:03:39;;;;;;;21.42;14.00;;;;;;;12.37;71.64;98962.41;6278516;22;20006;-78
2021/04/29 06:06:06;;;;;;;23.85;15.10;;;;;;;12.46;71.18;98958.78;6304271;22;20106;-79
2021/04/29 06:08:32;;;;;;;25.75;15.48;;;;;;;12.63;71.24;98954.78;6278759;22;20042;-78
2021/04/29 06:10:57;;;;;;;18.95;12.40;;;;;;;12.73;70.03;98964.56;6304538;22;20003;-78
2021/04/29 06:13:23;;;;;;;18.25;12.88;;;;;;;12.88;69.81;98968.91;6278322;22;20007;-78
2021/04/29 06:15:48;;;;;;;19.38;13.68;;;;;;;13.13;69.90;98970.34;6304412;22;20004;-77
2021/04/29 06:18:14;;;;;;;20.40;12.85;;;;;;;13.43;68.59;98974.44;6303978;22;20075;-79
2021/04/29 06:20:40;;;;;;;14.15;10.75;;;;;;;13.83;66.89;98975.84;6278617;22;20007;-76
2021/04/29 06:23:06;;;;;;;20.45;12.00;;;;;;;14.12;65.68;98972.03;6304018;22;20003;-77
2021/04/29 06:25:32;;;;;;;13.38;9.95;;;;;;;14.35;64.21;98970.22;6305597;22;20059;-77
2021/04/29 06:27:57;;;;;;;18.23;10.70;;;;;;;14.51;63.24;98974.16;6304168;22;20010;-78
2021/04/29 06:30:23;;;;;;;21.67;11.73;;;;;;;14.68;62.66;98975.41;6303827;22;20402;-77
2021/04/29 06:32:48;;;;;;;14.77;11.40;;;;;;;14.79;62.68;98978.69;6304200;22;19999;-77
2021/04/29 06:35:14;;;;;;;14.57;10.70;;;;;;;14.91;62.29;98978.91;6278141;22;20056;-77
2021/04/29 06:37:39;;;;;;;12.27;8.65;;;;;;;15.07;60.35;98983.94;6278373;22;20056;-77
2021/04/29 06:40:06;;;;;;;14.77;10.73;;;;;;;15.15;60.93;98983.97;6303823;22;20068;-77
2021/04/29 06:42:32;;;;;;;17.80;10.80;;;;;;;15.24;60.43;98969.78;6304188;22;19995;-78
2021/04/29 06:44:58;;;;;;;16.98;10.88;;;;;;;15.34;60.44;98975.69;6278357;22;19999;-77
2021/04/29 06:47:27;;;;;;;16.13;11.30;;;;;;;15.47;60.02;98978.63;6277934;22;20000;-78
2021/04/29 06:49:53;;;;;;;17.00;11.68;;;;;;;15.64;60.50;98985.97;6304022;22;20047;-78
2021/04/29 06:52:20;;;;;;;15.52;10.55;;;;;;;15.81;59.00;98979.84;6303731;22;20000;-77
2021/04/29 06:54:46;;;;;;;16.90;10.52;;;;;;;15.98;59.11;98979.94;6303845;22;19999;-77
2021/04/29 06:57:11;;;;;;;12.20;9.27;;;;;;;16.10;58.26;98971.25;6277898;22;20000;-77
2021/04/29 06:59:37;;;;;;;12.40;9.95;;;;;;;16.27;57.30;98978.56;6278120;22;20000;-77
2021/04/29 07:02:02;;;;;;;14.35;9.35;;;;;;;16.35;57.46;98976.97;6303946;22;20504;-76
2021/04/29 07:04:27;;;;;;;15.32;10.27;;;;;;;16.54;57.42;98974.00;6305262;22;20079;-78
2021/04/29 07:06:53;;;;;;;22.60;10.30;;;;;;;16.73;56.77;98973.66;6278115;22;20133;-77
2021/04/29 07:09:18;;;;;;;16.60;12.18;;;;;;;16.84;55.37;98973.34;6303650;22;20082;-78
2021/04/29 07:11:44;;;;;;;15.57;11.02;;;;;;;16.93;55.24;98966.03;6278506;22;20003;-78
2021/04/29 07:14:09;;;;;;;14.55;10.65;;;;;;;16.98;55.11;98967.78;6277472;22;20022;-78
2021/04/29 07:16:35;;;;;;;12.23;9.10;;;;;;;16.91;53.26;98968.25;6303969;22;20009;-78
2021/04/29 07:19:00;;;;;;;18.30;9.07;;;;;;;16.85;53.97;98969.53;6277957;22;19999;-78
2021/04/29 07:21:25;;;;;;;13.05;9.25;;;;;;;16.83;53.86;98969.03;6303748;22;20496;-77
2021/04/29 07:23:51;;;;;;;18.70;9.85;;;;;;;16.74;54.12;98974.47;6277992;22;20006;-78
2021/04/29 07:26:17;;;;;;;10.10;8.65;;;;;;;16.72;54.44;98965.88;6303398;22;20003;-78
2021/04/29 07:28:44;;;;;;;17.08;11.25;;;;;;;16.75;54.27;98967.94;6277878;22;20026;-78
2021/04/29 07:31:10;;;;;;;15.75;8.68;;;;;;;16.81;53.27;98967.44;6277293;22;20009;-78
2021/04/29 07:33:35;;;;;;;16.02;9.07;;;;;;;16.80;53.71;98970.47;6277842;22;20011;-77
2021/04/29 07:36:01;;;;;;;18.33;9.68;;;;;;;16.76;53.33;98967.63;6278171;22;20416;-77
2021/04/29 07:38:26;;;;;;;13.95;9.73;;;;;;;16.67;53.45;98964.13;6277569;22;19995;-77
2021/04/29 07:40:52;;;;;;;16.48;10.52;;;;;;;16.55;54.34;98972.06;6277721;22;20073;-78
2021/04/29 07:43:17;;;;;;;15.02;9.95;;;;;;;16.43;54.75;98968.09;6303163;22;20435;-78
2021/04/29 07:45:43;;;;;;;19.77;11.30;;;;;;;16.34;55.42;98972.69;6303413;22;20416;-78
2021/04/29 07:48:09;;;;;;;20.10;11.27;;;;;;;16.36;55.25;98973.19;6303149;22;20007;-78
2021/04/29 07:50:35;;;;;;;18.50;11.32;;;;;;;16.38;53.23;98981.75;6303499;22;20003;-78
2021/04/29 07:53:00;;;;;;;21.90;13.02;;;;;;;16.27;53.92;98980.47;6303489;22;20440;-78
2021/04/29 07:55:26;;;;;;;20.92;13.50;;;;;;;16.22;54.36;98978.72;6303160;22;20027;-78
2021/04/29 07:57:52;;;;;;;19.02;12.90;;;;;;;16.10;54.71;98971.25;6303358;22;20003;-78
2021/04/29 08:00:18;;;;;;;17.60;12.55;;;;;;;16.06;54.73;98969.47;6277157;22;20010;-77
2021/04/29 08:02:43;;;;;;;26.70;14.15;;;;;;;16.02;55.04;98965.84;6303401;22;20403;-77
2021/04/29 08:05:09;;;;;;;28.77;17.67;;;;;;;16.06;55.87;98966.78;6277068;22;20090;-77
2021/04/29 08:07:35;;;;;;;28.88;17.67;;;;;;;16.07;56.23;98960.28;6303310;22;20049;-77
2021/04/29 08:10:01;;;;;;;32.55;17.63;;;;;;;16.09;56.15;98958.84;6303321;22;20003;-77
2021/04/29 08:12:26;;;;;;;31.73;17.95;;;;;;;16.08;55.64;98956.47;6277227;22;20065;-77
2021/04/29 08:14:53;;;;;;;26.70;17.77;;;;;;;16.13;56.07;98950.94;6305018;22;19999;-77
2021/04/29 08:17:19;;;;;;;26.90;16.13;;;;;;;16.25;56.41;98961.09;6277315;22;20328;-77
2021/04/29 08:19:45;;;;;;;33.83;18.45;;;;;;;16.30;55.38;98961.72;6277689;22;20007;-77
2021/04/29 08:22:11;;;;;;;29.63;18.15;;;;;;;16.37;55.66;98966.66;6303345;22;20318;-77
2021/04/29 08:24:36;;;;;;;29.25;18.70;;;;;;;16.49;55.29;98964.13;6303607;22;19999;-77
2021/04/29 08:27:02;;;;;;;26.80;17.10;;;;;;;16.59;55.08;98964.94;6278108;22;20000;-77
2021/04/29 08:29:28;;;;;;;26.63;16.50;;;;;;;16.65;54.74;98958.28;6277755;22;19999;-77
2021/04/29 08:31:54;;;;;;;29.90;17.27;;;;;;;16.78;54.78;98953.78;6305556;22;20004;-77
2021/04/29 08:34:19;;;;;;;30.55;18.05;;;;;;;16.87;54.76;98949.19;6303352;22;20003;-77
2021/04/29 08:36:44;;;;;;;28.92;16.88;;;;;;;16.99;54.09;98953.16;6303786;22;20003;-77
2021/04/29 08:39:10;;;;;;;28.08;17.45;;;;;;;17.10;54.29;98951.69;6302871;22;20003;-78
2021/04/29 08:41:36;;;;;;;29.13;16.52;;;;;;;17.20;53.97;98932.44;6304025;22;20049;-78
2021/04/29 08:44:02;;;;;;;26.33;14.85;;;;;;;17.34;53.65;98942.25;6305636;22;20002;-78
2021/04/29 08:46:28;;;;;;;28.48;16.85;;;;;;;17.49;53.11;98946.34;6279678;22;20031;-78
2021/04/29 08:48:55;;;;;;;31.80;16.50;;;;;;;17.64;53.40;98950.41;6305707;22;20010;-78
2021/04/29 08:51:23;;;;;;;29.08;17.20;;;;;;;17.82;52.90;98949.22;6305316;22;20010;-78
2021/04/29 08:53:49;;;;;;;33.13;18.38;;;;;;;17.83;52.39;98948.06;6279941;22;20113;-78
2021/04/29 08:56:20;;;;;;;31.20;18.23;;;;;;;17.90;52.05;98944.88;6305348;22;20006;-78
2021/04/29 08:58:46;;;;;;;29.17;18.20;;;;;;;17.95;51.87;98946.63;6279314;22;20010;-79
2021/04/29 09:01:11;;;;;;;36.40;18.75;;;;;;;17.96;51.63;98945.50;6305169;22;20003;-78
2021/04/29 09:03:38;;;;;;;38.10;20.20;;;;;;;17.89;52.27;98949.50;6279591;22;20003;-78
2021/04/29 09:06:04;;;;;;;41.03;20.17;;;;;;;17.91;52.75;98944.53;6279789;22;20392;-77
2021/04/29 09:08:32;;;;;;;36.13;19.25;;;;;;;17.84;52.27;98938.06;6305089;22;20011;-77
2021/04/29 09:11:12;;;;;;;38.97;19.15;;;;;;;17.81;52.31;98938.69;6305511;22;20094;-76
2021/04/29 09:13:40;;;;;;;29.52;18.33;;;;;;;17.77;52.06;98935.84;6305209;22;19999;-77
2021/04/29 09:16:09;;;;;;;30.90;18.60;;;;;;;17.74;52.57;98923.78;6305134;22;20010;-77
2021/04/29 09:18:34;;;;;;;34.75;19.55;;;;;;;17.73;52.22;98921.41;6306626;22;19995;-77
2021/04/29 09:21:10;;;;;;;34.15;19.08;;;;;;;17.79;52.47;98912.00;6279307;22;19999;-77
2021/04/29 09:23:41;;;;;;;35.25;20.00;;;;;;;17.92;51.97;98904.75;6304444;22;20003;-77
2021/04/29 09:26:19;;;;;;;34.05;18.98;;;;;;;18.03;51.92;98914.09;6306521;22;19995;-79
2021/04/29 09:28:52;;;;;;;39.05;19.92;;;;;;;18.16;51.62;98908.75;6305231;22;20003;-77
2021/04/29 09:31:20;;;;;;;31.50;17.95;;;;;;;18.21;51.16;98898.53;6306089;22;20003;-78
2021/04/29 09:33:48;;;;;;;33.70;18.58;;;;;;;18.32;51.64;98914.38;6306754;22;20128;-78
2021/04/29 09:36:23;;;;;;;27.33;15.23;;;;;;;18.38;51.03;98913.84;6304451;22;20034;-79
2021/04/29 09:39:16;;;;;;;28.58;15.40;;;;;;;18.43;50.57;98917.47;6279246;22;19999;-77
2021/04/29 09:41:47;;;;;;;30.40;15.90;;;;;;;18.45;50.65;98915.22;6298928;22;20007;-78
2021/04/29 09:44:17;;;;;;;29.33;15.32;;;;;;;18.49;50.52;98913.44;6279002;22;20034;-77
2021/04/29 09:46:44;;;;;;;25.70;14.35;;;;;;;18.53;50.45;98914.38;6306507;22;20003;-79
2021/04/29 09:49:18;;;;;;;29.10;15.68;;;;;;;18.54;50.01;98903.19;6306703;22;20455;-79
2021/04/29 09:51:44;;;;;;;25.85;15.45;;;;;;;18.62;50.16;98904.22;6304946;22;20076;-77
2021/04/29 09:54:10;;;;;;;32.55;15.75;;;;;;;18.71;50.25;98904.13;6304384;22;20412;-77
2021/04/29 09:56:37;;;;;;;26.42;13.40;;;;;;;18.79;49.90;98911.41;6278866;22;20332;-77
2021/04/29 09:59:03;;;;;;;22.35;11.73;;;;;;;18.91;49.54;98909.84;6304852;22;19995;-77
2021/04/29 10:01:28;;;;;;;24.10;12.32;;;;;;;18.97;50.14;98909.34;6278857;22;20010;-77
2021/04/29 10:03:58;;;;;;;15.30;11.00;;;;;;;19.09;49.44;98907.75;6306271;22;20081;-77
2021/04/29 10:06:24;;;;;;;19.80;10.13;;;;;;;19.14;48.92;98896.69;6304672;22;20010;-77
2021/04/29 10:08:50;;;;;;;15.32;10.88;;;;;;;19.23;49.11;98902.81;6279418;22;20026;-77
2021/04/29 10:11:21;;;;;;;14.38;10.00;;;;;;;19.26;49.21;98898.66;6304628;22;20339;-77
2021/04/29 10:13:54;;;;;;;16.75;10.88;;;;;;;19.30;48.87;98889.50;6306673;22;20003;-77
2021/04/29 10:16:22;;;;;;;18.25;11.00;;;;;;;19.32;49.12;98889.16;6306135;22;19999;-77
2021/04/29 10:18:49;;;;;;;15.35;10.07;;;;;;;19.32;49.12;98884.53;6306230;22;20002;-78
2021/04/29 10:21:18;;;;;;;20.17;11.98;;;;;;;19.35;48.92;98880.34;6278895;22;20090;-77
2021/04/29 10:23:45;;;;;;;17.77;10.63;;;;;;;19.32;49.81;98879.13;6304698;22;20002;-77
2021/04/29 10:26:11;;;;;;;16.07;11.53;;;;;;;19.38;49.31;98873.47;6304303;22;20432;-77
2021/04/29 10:28:42;;;;;;;19.17;10.45;;;;;;;19.40;49.44;98866.56;6303508;22;20000;-77
2021/04/29 10:31:22;;;;;;;17.45;9.50;;;;;;;19.43;49.64;98873.22;6278248;22;20002;-78
2021/04/29 10:33:54;;;;;;;15.63;9.80;;;;;;;19.32;49.62;98879.13;6304946;22;20446;-78
2021/04/29 10:36:21;;;;;;;18.67;10.10;;;;;;;19.27;50.00;98868.47;6304349;22;20058;-78
2021/04/29 10:38:47;;;;;;;16.35;9.10;;;;;;;19.24;50.81;98871.88;6303797;22;20006;-78
2021/04/29 10:41:22;;;;;;;15.15;10.63;;;;;;;19.27;50.61;98875.81;6278582;22;20014;-79
2021/04/29 10:43:50;;;;;;;17.52;10.60;;;;;;;19.32;50.32;98873.69;6305519;22;19999;-77
2021/04/29 10:46:33;;;;;;;12.60;10.27;;;;;;;19.41;50.47;98870.88;6278160;22;20505;-78
2021/04/29 10:49:00;;;;;;;16.55;10.55;;;;;;;19.49;49.99;98869.97;6306024;22;20226;-80
2021/04/29 10:51:34;;;;;;;13.70;9.35;;;;;;;19.58;50.08;98866.31;6278085;22;20010;-77
2021/04/29 10:54:22;;;;;;;12.95;8.20;;;;;;;19.62;50.71;98861.81;6278488;22;20058;-77
2021/04/29 10:57:08;;;;;;;;;;;;;;;19.70;49.71;98854.69;6279055;22;20030;-77
2021/04/29 10:59:41;;;;;;;9.25;6.90;;;;;;;19.75;49.40;98847.09;6277978;22;20307;-79
2021/04/29 11:02:39;;;;;;;8.18;6.60;;;;;;;19.85;49.28;98856.72;6277534;22;20086;-79
2021/04/29 11:05:08;;;;;;;10.93;7.55;;;;;;;19.87;49.34;98843.56;6277085;22;20007;-79
2021/04/29 11:07:45;;;;;;;10.15;7.15;;;;;;;19.98;49.24;98838.47;6303820;22;20331;-79
2021/04/29 11:10:12;;;;;;;9.35;7.22;;;;;;;20.02;49.03;98850.22;6278281;22;20007;-78
2021/04/29 11:12:56;;;;;;;11.90;7.53;;;;;;;20.05;48.42;98849.53;6303472;22;20014;-78
2021/04/29 11:15:27;;;;;;;8.63;6.40;;;;;;;20.10;48.64;98841.16;6277978;22;20348;-78
2021/04/29 11:18:00;;;;;;;11.85;7.07;;;;;;;20.19;48.54;98838.28;6303777;22;20007;-78
2021/04/29 11:20:26;;;;;;;8.45;7.05;;;;;;;20.25;48.34;98833.38;6303820;22;20330;-78
2021/04/29 11:22:56;;;;;;;10.02;7.45;;;;;;;20.31;48.32;98821.94;6278269;22;19999;-78
2021/04/29 11:25:22;;;;;;;10.05;7.60;;;;;;;20.40;47.72;98819.06;6277852;22;20015;-78